LKPR - Praha Ruzyně, Česká republika
Vzdálenost od této stanice: ZSZ 177km
Aktualizováno: 19.04.2018 17:30
 
Teplota vzduchu: 22°C
Vítr: SV 13 km/h
Rosný bod: 7°C
Vlhkost vzduchu: 38%
Tlak vzduchu: 1029 hPa
Stav počasí: Jasno
Oblačnost: jasná obloha
Viditelnost: více než 10 km
2018/04/19 15:30 LKPR 191530Z 05007KT CAVOK 22/07 Q1029 NOSIG
LKTB - Brno Tuřany, Česká republika
Vzdálenost od této stanice: VJV 28km
Aktualizováno: 19.04.2018 17:30
 
Teplota vzduchu: 25°C
Vítr: S 6 km/h
Rosný bod: 9°C
Vlhkost vzduchu: 36%
Tlak vzduchu: 1027 hPa
Stav počasí: Jasno
Oblačnost: jasná obloha
Viditelnost: více než 10 km
2018/04/19 15:30 LKTB 191530Z 35003KT 300V030 CAVOK 25/09 Q1027 NOSIG
 
LKKV - Karlovy Vary, Česká republika
Vzdálenost od této stanice: SZ 268km
Aktualizováno: 19.04.2018 17:30
 
Teplota vzduchu: 21°C
Vítr: JV 13 km/h
Rosný bod: 4°C
Vlhkost vzduchu: 33%
Tlak vzduchu: 1030 hPa
Stav počasí: Jasno
Oblačnost: jasná obloha
Viditelnost: více než 10 km
2018/04/19 15:30 LKKV 191530Z 13007KT 110V170 CAVOK 21/04 Q1030
LKMT - Ostrava Mošnov, Česká republika
Vzdálenost od této stanice: VSV 136km
Aktualizováno: 19.04.2018 17:30
 
Teplota vzduchu: 22°C
Vítr: S 20 km/h
Rosný bod: 11°C
Vlhkost vzduchu: 50%
Tlak vzduchu: 1028 hPa
Stav počasí: Jasno
Oblačnost: jasná obloha
Viditelnost: více než 10 km
2018/04/19 15:30 LKMT 191530Z 35011KT CAVOK 22/11 Q1028 NOSIG
 
LKPD - Pardubice, Česká republika
Vzdálenost od této stanice: SSZ 97km
Aktualizováno: 19.04.2018 17:00
 
Teplota vzduchu: 24°C
Vítr: proměnlivý 7 km/h
Rosný bod: 9°C
Vlhkost vzduchu: 39%
Tlak vzduchu: 1028 hPa
Stav počasí: Jasno
Oblačnost: jasná obloha
Viditelnost: více než 10 km
2018/04/19 15:00 LKPD 191500Z VRB04KT CAVOK 24/09 Q1028 NOSIG RMK BLU BLU
LKKB - Praha Kbely, Česká republika
Vzdálenost od této stanice: SZ 162km
Aktualizováno: 19.04.2018 17:00
 
Teplota vzduchu: 23°C
Vítr: VSV 7 km/h
Rosný bod: 6°C
Vlhkost vzduchu: 33%
Tlak vzduchu: 1029 hPa
Stav počasí: Jasno
Oblačnost: jasná obloha
Viditelnost: více než 10 km
2018/04/19 15:00 LKKB 191500Z 06004KT 350V150 CAVOK 23/06 Q1029 NOSIG
 
LKCV - Čáslav, Česká republika
Vzdálenost od této stanice: SZ 103km
Aktualizováno: 19.04.2018 17:00
 
Teplota vzduchu: 23°C
Vítr: SZ 11 km/h
Rosný bod: 9°C
Vlhkost vzduchu: 41%
Tlak vzduchu: 1029 hPa
Stav počasí: Jasno
Oblačnost: jasná obloha
Viditelnost: více než 10 km
2018/04/19 15:00 LKCV 191500Z 31006KT CAVOK 23/09 Q1029 NOSIG RMK BLU BLU
LKNA - Náměšť n. Osl., Česká republika
Vzdálenost od této stanice: ZJZ 19km
Aktualizováno: 19.04.2018 17:00
 
Teplota vzduchu: 22°C
Vítr: SZ 17 km/h
Rosný bod: 8°C
Vlhkost vzduchu: 41%
Tlak vzduchu: 1028 hPa
Stav počasí: Jasno
Oblačnost: jasná obloha
Viditelnost: více než 10 km
2018/04/19 15:00 LKNA 191500Z 32009KT CAVOK 22/08 Q1028 NOSIG RMK BLU BLU
 
LKLN - Plzeň Líně, Česká republika
Vzdálenost od této stanice: Z 228km
Aktualizováno: 19.04.2018 17:00
 
Teplota vzduchu: 24°C
Vítr: proměnlivý 6 km/h
Rosný bod: 8°C
Vlhkost vzduchu: 36%
Tlak vzduchu: 1029 hPa
Stav počasí: Jasno
Oblačnost: jasná obloha
Viditelnost: více než 10 km
2018/04/19 15:00 LKLN 191500Z AUTO VRB03KT CAVOK 24/08 Q1029
LKVO - Vodochody, Česká republika
Vzdálenost od této stanice: SZ 177km
Aktualizováno: 18.04.2018 17:00
Není aktuální
 
Teplota vzduchu: 22°C
Vítr: proměnlivý 2 km/h
Rosný bod: 3°C
Vlhkost vzduchu: 29%
Tlak vzduchu: 1032 hPa
Stav počasí: Jasno
Oblačnost: jasná obloha
Viditelnost: více než 10 km
2018/04/18 15:00 LKVO 181500Z VRB01KT CAVOK 22/03 Q1032